sensor_id;sensor_type;location;lat;lon;timestamp;P1;durP1;ratioP1;P2;durP2;ratioP2
17157;SDS011;37344;51.948;7.622;2022-09-20T00:01:10;10.93;;;4.27;;
17157;SDS011;37344;51.948;7.622;2022-09-20T00:03:39;15.07;;;4.93;;
17157;SDS011;37344;51.948;7.622;2022-09-20T00:06:07;11.83;;;4.37;;
17157;SDS011;37344;51.948;7.622;2022-09-20T00:08:34;12.70;;;4.70;;
17157;SDS011;37344;51.948;7.622;2022-09-20T00:11:04;13.03;;;3.97;;
17157;SDS011;37344;51.948;7.622;2022-09-20T00:13:32;15.07;;;4.10;;
17157;SDS011;37344;51.948;7.622;2022-09-20T00:16:02;10.77;;;4.43;;
17157;SDS011;37344;51.948;7.622;2022-09-20T00:18:30;9.53;;;3.77;;
17157;SDS011;37344;51.948;7.622;2022-09-20T00:20:57;11.07;;;4.07;;
17157;SDS011;37344;51.948;7.622;2022-09-20T00:23:24;11.47;;;4.13;;
17157;SDS011;37344;51.948;7.622;2022-09-20T00:25:55;9.87;;;3.73;;
17157;SDS011;37344;51.948;7.622;2022-09-20T00:28:24;13.03;;;4.23;;
17157;SDS011;37344;51.948;7.622;2022-09-20T00:30:52;12.57;;;3.60;;
17157;SDS011;37344;51.948;7.622;2022-09-20T00:33:20;10.07;;;3.97;;
17157;SDS011;37344;51.948;7.622;2022-09-20T00:35:47;11.60;;;3.80;;
17157;SDS011;37344;51.948;7.622;2022-09-20T00:38:14;8.87;;;3.87;;
17157;SDS011;37344;51.948;7.622;2022-09-20T00:40:41;10.30;;;4.20;;
17157;SDS011;37344;51.948;7.622;2022-09-20T00:43:09;8.83;;;3.47;;
17157;SDS011;37344;51.948;7.622;2022-09-20T00:45:40;11.07;;;4.13;;
17157;SDS011;37344;51.948;7.622;2022-09-20T00:48:09;10.33;;;3.30;;
17157;SDS011;37344;51.948;7.622;2022-09-20T00:50:39;9.80;;;3.37;;
17157;SDS011;37344;51.948;7.622;2022-09-20T00:53:08;7.83;;;3.33;;
17157;SDS011;37344;51.948;7.622;2022-09-20T00:55:39;10.23;;;3.80;;
17157;SDS011;37344;51.948;7.622;2022-09-20T00:58:07;8.57;;;3.30;;
17157;SDS011;37344;51.948;7.622;2022-09-20T01:00:34;7.73;;;3.07;;
17157;SDS011;37344;51.948;7.622;2022-09-20T01:03:04;11.03;;;3.53;;
17157;SDS011;37344;51.948;7.622;2022-09-20T01:05:33;7.20;;;3.13;;
17157;SDS011;37344;51.948;7.622;2022-09-20T01:08:00;8.70;;;3.40;;
17157;SDS011;37344;51.948;7.622;2022-09-20T01:10:28;6.47;;;2.83;;
17157;SDS011;37344;51.948;7.622;2022-09-20T01:12:56;8.93;;;3.50;;
17157;SDS011;37344;51.948;7.622;2022-09-20T01:15:23;9.10;;;3.20;;
17157;SDS011;37344;51.948;7.622;2022-09-20T01:17:52;7.50;;;3.40;;
17157;SDS011;37344;51.948;7.622;2022-09-20T01:20:22;6.70;;;3.13;;
17157;SDS011;37344;51.948;7.622;2022-09-20T01:23:04;11.17;;;3.37;;
17157;SDS011;37344;51.948;7.622;2022-09-20T01:25:42;10.17;;;3.40;;
17157;SDS011;37344;51.948;7.622;2022-09-20T01:28:12;8.30;;;3.00;;
17157;SDS011;37344;51.948;7.622;2022-09-20T01:30:41;8.50;;;3.17;;
17157;SDS011;37344;51.948;7.622;2022-09-20T01:33:10;6.03;;;3.07;;
17157;SDS011;37344;51.948;7.622;2022-09-20T01:35:40;8.73;;;3.20;;
17157;SDS011;37344;51.948;7.622;2022-09-20T01:38:15;10.00;;;3.07;;
17157;SDS011;37344;51.948;7.622;2022-09-20T01:40:46;10.23;;;3.37;;
17157;SDS011;37344;51.948;7.622;2022-09-20T01:43:23;9.53;;;3.40;;
17157;SDS011;37344;51.948;7.622;2022-09-20T01:45:52;6.20;;;2.57;;
17157;SDS011;37344;51.948;7.622;2022-09-20T01:48:23;6.93;;;2.93;;
17157;SDS011;37344;51.948;7.622;2022-09-20T01:50:58;7.53;;;3.00;;
17157;SDS011;37344;51.948;7.622;2022-09-20T01:53:47;8.00;;;2.97;;
17157;SDS011;37344;51.948;7.622;2022-09-20T01:59:21;8.23;;;2.90;;
17157;SDS011;37344;51.948;7.622;2022-09-20T02:02:05;7.60;;;2.53;;
17157;SDS011;37344;51.948;7.622;2022-09-20T02:04:41;5.83;;;2.53;;
17157;SDS011;37344;51.948;7.622;2022-09-20T02:07:20;8.33;;;2.60;;
17157;SDS011;37344;51.948;7.622;2022-09-20T02:10:04;8.83;;;2.80;;
17157;SDS011;37344;51.948;7.622;2022-09-20T02:12:50;5.80;;;2.27;;
17157;SDS011;37344;51.948;7.622;2022-09-20T02:15:32;6.13;;;2.77;;
17157;SDS011;37344;51.948;7.622;2022-09-20T02:18:03;5.50;;;2.20;;
17157;SDS011;37344;51.948;7.622;2022-09-20T02:20:37;8.20;;;2.90;;
17157;SDS011;37344;51.948;7.622;2022-09-20T02:23:11;6.47;;;2.40;;
17157;SDS011;37344;51.948;7.622;2022-09-20T02:28:25;5.07;;;2.10;;
17157;SDS011;37344;51.948;7.622;2022-09-20T02:30:57;6.53;;;2.23;;
17157;SDS011;37344;51.948;7.622;2022-09-20T02:33:35;7.33;;;2.47;;
17157;SDS011;37344;51.948;7.622;2022-09-20T02:36:12;5.87;;;2.37;;
17157;SDS011;37344;51.948;7.622;2022-09-20T02:38:44;6.63;;;2.43;;
17157;SDS011;37344;51.948;7.622;2022-09-20T02:41:23;7.93;;;2.50;;
17157;SDS011;37344;51.948;7.622;2022-09-20T02:43:55;4.27;;;2.17;;
17157;SDS011;37344;51.948;7.622;2022-09-20T02:46:27;6.37;;;1.97;;
17157;SDS011;37344;51.948;7.622;2022-09-20T02:48:58;6.93;;;2.13;;
17157;SDS011;37344;51.948;7.622;2022-09-20T02:51:27;4.83;;;2.40;;
17157;SDS011;37344;51.948;7.622;2022-09-20T02:53:58;5.33;;;2.40;;
17157;SDS011;37344;51.948;7.622;2022-09-20T02:56:29;3.97;;;2.10;;
17157;SDS011;37344;51.948;7.622;2022-09-20T02:59:01;4.53;;;1.80;;
17157;SDS011;37344;51.948;7.622;2022-09-20T03:01:41;5.63;;;2.30;;
17157;SDS011;37344;51.948;7.622;2022-09-20T03:04:17;5.40;;;1.97;;
17157;SDS011;37344;51.948;7.622;2022-09-20T03:06:48;5.00;;;1.97;;
17157;SDS011;37344;51.948;7.622;2022-09-20T03:09:18;4.53;;;1.53;;
17157;SDS011;37344;51.948;7.622;2022-09-20T03:11:50;4.57;;;2.13;;
17157;SDS011;37344;51.948;7.622;2022-09-20T03:14:22;4.87;;;1.93;;
17157;SDS011;37344;51.948;7.622;2022-09-20T03:16:58;7.13;;;1.83;;
17157;SDS011;37344;51.948;7.622;2022-09-20T03:19:31;4.53;;;1.77;;
17157;SDS011;37344;51.948;7.622;2022-09-20T03:22:02;5.97;;;1.90;;
17157;SDS011;37344;51.948;7.622;2022-09-20T03:24:37;7.70;;;2.27;;
17157;SDS011;37344;51.948;7.622;2022-09-20T03:27:06;5.20;;;1.70;;
17157;SDS011;37344;51.948;7.622;2022-09-20T03:29:42;5.67;;;2.47;;
17157;SDS011;37344;51.948;7.622;2022-09-20T03:32:19;5.63;;;2.10;;
17157;SDS011;37344;51.948;7.622;2022-09-20T03:34:53;4.37;;;2.10;;
17157;SDS011;37344;51.948;7.622;2022-09-20T03:37:28;6.80;;;1.80;;
17157;SDS011;37344;51.948;7.622;2022-09-20T03:40:11;4.50;;;1.67;;
17157;SDS011;37344;51.948;7.622;2022-09-20T03:42:44;3.40;;;1.60;;
17157;SDS011;37344;51.948;7.622;2022-09-20T03:45:25;4.67;;;1.93;;
17157;SDS011;37344;51.948;7.622;2022-09-20T03:50:50;4.07;;;1.70;;
17157;SDS011;37344;51.948;7.622;2022-09-20T03:53:26;4.13;;;1.73;;
17157;SDS011;37344;51.948;7.622;2022-09-20T03:56:03;6.20;;;1.77;;
17157;SDS011;37344;51.948;7.622;2022-09-20T03:58:39;7.80;;;1.90;;
17157;SDS011;37344;51.948;7.622;2022-09-20T04:01:14;3.03;;;1.50;;
17157;SDS011;37344;51.948;7.622;2022-09-20T04:03:48;5.33;;;1.57;;
17157;SDS011;37344;51.948;7.622;2022-09-20T04:06:29;5.33;;;1.40;;
17157;SDS011;37344;51.948;7.622;2022-09-20T04:09:13;3.77;;;1.50;;
17157;SDS011;37344;51.948;7.622;2022-09-20T04:11:46;3.50;;;1.60;;
17157;SDS011;37344;51.948;7.622;2022-09-20T04:14:17;4.73;;;1.40;;
17157;SDS011;37344;51.948;7.622;2022-09-20T04:16:48;4.43;;;1.57;;
17157;SDS011;37344;51.948;7.622;2022-09-20T04:19:20;3.60;;;1.27;;
17157;SDS011;37344;51.948;7.622;2022-09-20T04:21:52;5.17;;;1.73;;
17157;SDS011;37344;51.948;7.622;2022-09-20T04:24:22;3.40;;;1.27;;
17157;SDS011;37344;51.948;7.622;2022-09-20T04:26:52;4.67;;;1.60;;
17157;SDS011;37344;51.948;7.622;2022-09-20T04:29:28;4.30;;;1.70;;
17157;SDS011;37344;51.948;7.622;2022-09-20T04:31:58;2.80;;;1.40;;
17157;SDS011;37344;51.948;7.622;2022-09-20T04:34:30;4.77;;;1.50;;
17157;SDS011;37344;51.948;7.622;2022-09-20T04:37:20;5.33;;;1.70;;
17157;SDS011;37344;51.948;7.622;2022-09-20T04:39:51;5.17;;;1.50;;
17157;SDS011;37344;51.948;7.622;2022-09-20T04:48:11;5.90;;;1.40;;
17157;SDS011;37344;51.948;7.622;2022-09-20T04:50:49;4.07;;;1.50;;
17157;SDS011;37344;51.948;7.622;2022-09-20T04:56:04;2.47;;;1.20;;
17157;SDS011;37344;51.948;7.622;2022-09-20T04:58:42;4.30;;;1.50;;
17157;SDS011;37344;51.948;7.622;2022-09-20T05:01:24;4.10;;;1.27;;
17157;SDS011;37344;51.948;7.622;2022-09-20T05:04:01;2.50;;;1.27;;
17157;SDS011;37344;51.948;7.622;2022-09-20T05:06:37;3.83;;;1.20;;
17157;SDS011;37344;51.948;7.622;2022-09-20T05:09:17;6.27;;;1.30;;
17157;SDS011;37344;51.948;7.622;2022-09-20T05:14:44;2.50;;;1.13;;
17157;SDS011;37344;51.948;7.622;2022-09-20T05:17:22;5.17;;;1.20;;
17157;SDS011;37344;51.948;7.622;2022-09-20T05:19:55;3.97;;;1.30;;
17157;SDS011;37344;51.948;7.622;2022-09-20T05:22:42;3.93;;;1.33;;
17157;SDS011;37344;51.948;7.622;2022-09-20T05:25:22;3.27;;;1.17;;
17157;SDS011;37344;51.948;7.622;2022-09-20T05:27:51;5.50;;;1.40;;
17157;SDS011;37344;51.948;7.622;2022-09-20T05:30:25;3.60;;;1.30;;
17157;SDS011;37344;51.948;7.622;2022-09-20T05:32:59;3.53;;;1.03;;
17157;SDS011;37344;51.948;7.622;2022-09-20T05:35:31;2.57;;;1.10;;
17157;SDS011;37344;51.948;7.622;2022-09-20T05:38:01;4.90;;;1.17;;
17157;SDS011;37344;51.948;7.622;2022-09-20T05:40:32;4.07;;;1.07;;
17157;SDS011;37344;51.948;7.622;2022-09-20T05:43:05;3.63;;;1.17;;
17157;SDS011;37344;51.948;7.622;2022-09-20T05:45:46;5.03;;;1.30;;
17157;SDS011;37344;51.948;7.622;2022-09-20T05:48:15;3.07;;;1.20;;
17157;SDS011;37344;51.948;7.622;2022-09-20T05:50:45;2.57;;;1.20;;
17157;SDS011;37344;51.948;7.622;2022-09-20T05:53:27;6.20;;;1.23;;
17157;SDS011;37344;51.948;7.622;2022-09-20T05:56:01;6.70;;;1.30;;
17157;SDS011;37344;51.948;7.622;2022-09-20T05:58:33;3.27;;;1.27;;
17157;SDS011;37344;51.948;7.622;2022-09-20T06:01:07;3.23;;;1.33;;
17157;SDS011;37344;51.948;7.622;2022-09-20T06:03:38;4.03;;;1.23;;
17157;SDS011;37344;51.948;7.622;2022-09-20T06:06:09;3.37;;;1.33;;
17157;SDS011;37344;51.948;7.622;2022-09-20T06:11:39;2.20;;;1.00;;
17157;SDS011;37344;51.948;7.622;2022-09-20T06:14:13;2.27;;;1.00;;
17157;SDS011;37344;51.948;7.622;2022-09-20T12:06:54;4.20;;;0.90;;
17157;SDS011;37344;51.948;7.622;2022-09-20T12:09:23;3.50;;;0.70;;
17157;SDS011;37344;51.948;7.622;2022-09-20T12:11:51;3.00;;;0.80;;
17157;SDS011;37344;51.948;7.622;2022-09-20T12:14:20;3.67;;;0.80;;
17157;SDS011;37344;51.948;7.622;2022-09-20T12:16:48;6.90;;;0.93;;
17157;SDS011;37344;51.948;7.622;2022-09-20T12:22:17;5.63;;;1.10;;
17157;SDS011;37344;51.948;7.622;2022-09-20T12:27:56;2.03;;;0.82;;
17157;SDS011;37344;51.948;7.622;2022-09-20T12:30:24;2.90;;;0.60;;
17157;SDS011;37344;51.948;7.622;2022-09-20T12:32:54;2.90;;;0.70;;
17157;SDS011;37344;51.948;7.622;2022-09-20T12:35:50;3.38;;;0.80;;
17157;SDS011;37344;51.948;7.622;2022-09-20T12:38:25;3.47;;;0.47;;
17157;SDS011;37344;51.948;7.622;2022-09-20T12:40:57;6.07;;;1.00;;
17157;SDS011;37344;51.948;7.622;2022-09-20T12:43:24;5.10;;;0.75;;
17157;SDS011;37344;51.948;7.622;2022-09-20T12:45:53;0.90;;;0.50;;
17157;SDS011;37344;51.948;7.622;2022-09-20T12:48:21;3.67;;;0.70;;
17157;SDS011;37344;51.948;7.622;2022-09-20T12:50:59;3.05;;;0.60;;
17157;SDS011;37344;51.948;7.622;2022-09-20T12:53:57;3.30;;;0.60;;
17157;SDS011;37344;51.948;7.622;2022-09-20T12:58:53;9.30;;;0.90;;
17157;SDS011;37344;51.948;7.622;2022-09-20T13:01:37;2.15;;;0.60;;
17157;SDS011;37344;51.948;7.622;2022-09-20T13:07:24;2.80;;;0.70;;
17157;SDS011;37344;51.948;7.622;2022-09-20T13:09:36;1.65;;;0.70;;
17157;SDS011;37344;51.948;7.622;2022-09-20T13:12:03;2.95;;;0.70;;
17157;SDS011;37344;51.948;7.622;2022-09-20T13:14:31;0.45;;;0.40;;
17157;SDS011;37344;51.948;7.622;2022-09-20T13:16:59;2.50;;;0.68;;
17157;SDS011;37344;51.948;7.622;2022-09-20T13:21:56;3.60;;;0.60;;
17157;SDS011;37344;51.948;7.622;2022-09-20T13:24:24;3.35;;;0.50;;
17157;SDS011;37344;51.948;7.622;2022-09-20T13:26:54;1.60;;;0.70;;
17157;SDS011;37344;51.948;7.622;2022-09-20T13:29:24;3.73;;;0.90;;
17157;SDS011;37344;51.948;7.622;2022-09-20T13:31:52;1.77;;;0.60;;
17157;SDS011;37344;51.948;7.622;2022-09-20T13:36:50;5.15;;;0.65;;
17157;SDS011;37344;51.948;7.622;2022-09-20T13:39:26;4.22;;;0.70;;
17157;SDS011;37344;51.948;7.622;2022-09-20T13:41:59;5.87;;;0.60;;
17157;SDS011;37344;51.948;7.622;2022-09-20T13:44:28;2.27;;;0.80;;
17157;SDS011;37344;51.948;7.622;2022-09-20T13:51:51;5.05;;;0.70;;
17157;SDS011;37344;51.948;7.622;2022-09-20T13:54:19;1.30;;;0.43;;
17157;SDS011;37344;51.948;7.622;2022-09-20T13:56:47;2.10;;;0.70;;
17157;SDS011;37344;51.948;7.622;2022-09-20T13:59:16;3.63;;;0.77;;
17157;SDS011;37344;51.948;7.622;2022-09-20T14:01:47;5.40;;;0.60;;
17157;SDS011;37344;51.948;7.622;2022-09-20T14:04:15;7.00;;;0.70;;
17157;SDS011;37344;51.948;7.622;2022-09-20T14:09:15;2.90;;;0.60;;
17157;SDS011;37344;51.948;7.622;2022-09-20T14:11:44;4.50;;;0.75;;
17157;SDS011;37344;51.948;7.622;2022-09-20T14:14:12;6.50;;;0.60;;
17157;SDS011;37344;51.948;7.622;2022-09-20T14:16:42;3.50;;;0.60;;
17157;SDS011;37344;51.948;7.622;2022-09-20T14:19:11;7.18;;;1.00;;
17157;SDS011;37344;51.948;7.622;2022-09-20T14:21:39;1.90;;;0.60;;
17157;SDS011;37344;51.948;7.622;2022-09-20T14:24:21;4.50;;;0.53;;
17157;SDS011;37344;51.948;7.622;2022-09-20T14:26:58;1.73;;;0.60;;
17157;SDS011;37344;51.948;7.622;2022-09-20T14:29:26;5.32;;;0.77;;
17157;SDS011;37344;51.948;7.622;2022-09-20T14:31:56;3.15;;;0.65;;
17157;SDS011;37344;51.948;7.622;2022-09-20T14:34:24;2.63;;;0.57;;
17157;SDS011;37344;51.948;7.622;2022-09-20T14:36:58;3.42;;;0.90;;
17157;SDS011;37344;51.948;7.622;2022-09-20T14:39:28;1.00;;;0.50;;
17157;SDS011;37344;51.948;7.622;2022-09-20T14:41:55;2.63;;;0.60;;
17157;SDS011;37344;51.948;7.622;2022-09-20T14:44:23;3.38;;;1.30;;
17157;SDS011;37344;51.948;7.622;2022-09-20T14:46:52;4.70;;;0.83;;
17157;SDS011;37344;51.948;7.622;2022-09-20T14:49:30;4.38;;;0.60;;
17157;SDS011;37344;51.948;7.622;2022-09-20T14:54:55;2.15;;;0.55;;
17157;SDS011;37344;51.948;7.622;2022-09-20T14:57:23;7.80;;;1.60;;
17157;SDS011;37344;51.948;7.622;2022-09-20T14:59:53;4.07;;;0.60;;
17157;SDS011;37344;51.948;7.622;2022-09-20T15:02:21;9.43;;;1.27;;
17157;SDS011;37344;51.948;7.622;2022-09-20T15:04:52;8.03;;;0.90;;
17157;SDS011;37344;51.948;7.622;2022-09-20T15:07:20;4.93;;;0.90;;
17157;SDS011;37344;51.948;7.622;2022-09-20T15:09:47;7.97;;;0.98;;
17157;SDS011;37344;51.948;7.622;2022-09-20T15:12:15;5.43;;;0.90;;
17157;SDS011;37344;51.948;7.622;2022-09-20T15:14:43;6.17;;;0.80;;
17157;SDS011;37344;51.948;7.622;2022-09-20T15:17:12;8.30;;;0.73;;
17157;SDS011;37344;51.948;7.622;2022-09-20T15:19:40;3.33;;;0.73;;
17157;SDS011;37344;51.948;7.622;2022-09-20T15:22:09;4.20;;;0.60;;
17157;SDS011;37344;51.948;7.622;2022-09-20T15:24:37;5.03;;;1.27;;
17157;SDS011;37344;51.948;7.622;2022-09-20T15:27:04;27.02;;;1.30;;
17157;SDS011;37344;51.948;7.622;2022-09-20T15:29:32;2.97;;;0.60;;
17157;SDS011;37344;51.948;7.622;2022-09-20T15:31:59;6.97;;;0.90;;
17157;SDS011;37344;51.948;7.622;2022-09-20T15:34:27;4.27;;;1.00;;
17157;SDS011;37344;51.948;7.622;2022-09-20T15:36:55;5.17;;;0.77;;
17157;SDS011;37344;51.948;7.622;2022-09-20T15:39:23;3.70;;;0.53;;
17157;SDS011;37344;51.948;7.622;2022-09-20T15:41:52;6.27;;;0.73;;
17157;SDS011;37344;51.948;7.622;2022-09-20T15:44:19;6.43;;;1.00;;
17157;SDS011;37344;51.948;7.622;2022-09-20T15:46:46;4.23;;;0.60;;
17157;SDS011;37344;51.948;7.622;2022-09-20T15:49:16;3.97;;;0.60;;
17157;SDS011;37344;51.948;7.622;2022-09-20T15:51:44;3.93;;;0.73;;
17157;SDS011;37344;51.948;7.622;2022-09-20T15:54:13;5.43;;;0.90;;
17157;SDS011;37344;51.948;7.622;2022-09-20T15:56:41;4.17;;;0.80;;
17157;SDS011;37344;51.948;7.622;2022-09-20T15:59:09;1.90;;;0.63;;
17157;SDS011;37344;51.948;7.622;2022-09-20T16:01:38;2.70;;;0.70;;
17157;SDS011;37344;51.948;7.622;2022-09-20T16:04:06;7.57;;;0.70;;
17157;SDS011;37344;51.948;7.622;2022-09-20T16:06:34;2.73;;;0.80;;
17157;SDS011;37344;51.948;7.622;2022-09-20T16:09:01;8.77;;;0.90;;
17157;SDS011;37344;51.948;7.622;2022-09-20T16:11:29;7.73;;;1.00;;
17157;SDS011;37344;51.948;7.622;2022-09-20T16:13:58;7.20;;;0.80;;
17157;SDS011;37344;51.948;7.622;2022-09-20T16:16:26;3.67;;;0.90;;
17157;SDS011;37344;51.948;7.622;2022-09-20T16:18:53;13.63;;;0.90;;
17157;SDS011;37344;51.948;7.622;2022-09-20T16:21:39;2.60;;;0.70;;
17157;SDS011;37344;51.948;7.622;2022-09-20T16:24:06;11.57;;;0.77;;
17157;SDS011;37344;51.948;7.622;2022-09-20T16:26:34;3.67;;;0.93;;
17157;SDS011;37344;51.948;7.622;2022-09-20T16:29:03;3.10;;;0.70;;
17157;SDS011;37344;51.948;7.622;2022-09-20T16:31:32;4.00;;;0.67;;
17157;SDS011;37344;51.948;7.622;2022-09-20T16:34:01;16.90;;;0.97;;
17157;SDS011;37344;51.948;7.622;2022-09-20T16:36:29;12.07;;;1.73;;
17157;SDS011;37344;51.948;7.622;2022-09-20T16:38:56;1.57;;;0.70;;
17157;SDS011;37344;51.948;7.622;2022-09-20T16:41:25;3.27;;;0.93;;
17157;SDS011;37344;51.948;7.622;2022-09-20T16:43:53;5.40;;;0.97;;
17157;SDS011;37344;51.948;7.622;2022-09-20T16:46:22;3.23;;;0.70;;
17157;SDS011;37344;51.948;7.622;2022-09-20T16:48:51;6.67;;;0.80;;
17157;SDS011;37344;51.948;7.622;2022-09-20T16:51:19;7.83;;;1.00;;
17157;SDS011;37344;51.948;7.622;2022-09-20T16:53:49;8.30;;;0.67;;
17157;SDS011;37344;51.948;7.622;2022-09-20T16:56:18;8.13;;;0.80;;
17157;SDS011;37344;51.948;7.622;2022-09-20T16:58:45;4.97;;;0.90;;
17157;SDS011;37344;51.948;7.622;2022-09-20T17:01:13;5.13;;;0.80;;
17157;SDS011;37344;51.948;7.622;2022-09-20T17:03:42;3.53;;;0.60;;
17157;SDS011;37344;51.948;7.622;2022-09-20T17:06:10;8.17;;;0.70;;
17157;SDS011;37344;51.948;7.622;2022-09-20T17:08:38;4.13;;;0.57;;
17157;SDS011;37344;51.948;7.622;2022-09-20T17:11:06;2.83;;;0.97;;
17157;SDS011;37344;51.948;7.622;2022-09-20T17:13:34;2.70;;;0.67;;
17157;SDS011;37344;51.948;7.622;2022-09-20T17:16:04;3.73;;;0.83;;
17157;SDS011;37344;51.948;7.622;2022-09-20T17:18:32;4.03;;;0.70;;
17157;SDS011;37344;51.948;7.622;2022-09-20T17:21:04;3.73;;;0.80;;
17157;SDS011;37344;51.948;7.622;2022-09-20T17:23:31;3.43;;;1.00;;
17157;SDS011;37344;51.948;7.622;2022-09-20T17:26:00;2.33;;;0.63;;
17157;SDS011;37344;51.948;7.622;2022-09-20T17:28:34;6.30;;;0.90;;
17157;SDS011;37344;51.948;7.622;2022-09-20T17:31:01;5.10;;;0.90;;
17157;SDS011;37344;51.948;7.622;2022-09-20T17:33:29;3.13;;;1.00;;
17157;SDS011;37344;51.948;7.622;2022-09-20T17:35:58;2.00;;;0.77;;
17157;SDS011;37344;51.948;7.622;2022-09-20T17:38:28;5.23;;;1.00;;
17157;SDS011;37344;51.948;7.622;2022-09-20T17:40:57;5.37;;;0.90;;
17157;SDS011;37344;51.948;7.622;2022-09-20T17:43:25;15.87;;;1.03;;
17157;SDS011;37344;51.948;7.622;2022-09-20T17:46:02;5.57;;;0.80;;
17157;SDS011;37344;51.948;7.622;2022-09-20T17:48:29;7.57;;;1.20;;
17157;SDS011;37344;51.948;7.622;2022-09-20T17:50:58;2.97;;;0.93;;
17157;SDS011;37344;51.948;7.622;2022-09-20T17:53:28;7.57;;;1.13;;
17157;SDS011;37344;51.948;7.622;2022-09-20T17:55:55;4.10;;;1.63;;
17157;SDS011;37344;51.948;7.622;2022-09-20T17:58:22;9.07;;;1.60;;
17157;SDS011;37344;51.948;7.622;2022-09-20T18:00:50;6.23;;;1.40;;
17157;SDS011;37344;51.948;7.622;2022-09-20T18:03:20;5.90;;;1.30;;
17157;SDS011;37344;51.948;7.622;2022-09-20T18:05:48;8.30;;;1.70;;
17157;SDS011;37344;51.948;7.622;2022-09-20T18:08:16;6.53;;;1.33;;
17157;SDS011;37344;51.948;7.622;2022-09-20T18:10:53;14.07;;;1.60;;
17157;SDS011;37344;51.948;7.622;2022-09-20T18:13:21;6.07;;;1.27;;
17157;SDS011;37344;51.948;7.622;2022-09-20T18:15:48;6.40;;;1.50;;
17157;SDS011;37344;51.948;7.622;2022-09-20T18:18:16;3.00;;;1.27;;
17157;SDS011;37344;51.948;7.622;2022-09-20T18:20:44;15.70;;;1.53;;
17157;SDS011;37344;51.948;7.622;2022-09-20T18:23:11;4.93;;;1.47;;
17157;SDS011;37344;51.948;7.622;2022-09-20T18:25:39;8.00;;;1.30;;
17157;SDS011;37344;51.948;7.622;2022-09-20T18:28:25;5.03;;;1.23;;
17157;SDS011;37344;51.948;7.622;2022-09-20T18:30:59;3.77;;;1.20;;
17157;SDS011;37344;51.948;7.622;2022-09-20T18:33:27;5.47;;;1.70;;
17157;SDS011;37344;51.948;7.622;2022-09-20T18:35:59;7.57;;;1.70;;
17157;SDS011;37344;51.948;7.622;2022-09-20T18:38:26;5.37;;;1.77;;
17157;SDS011;37344;51.948;7.622;2022-09-20T18:40:54;6.80;;;1.53;;
17157;SDS011;37344;51.948;7.622;2022-09-20T18:43:26;7.90;;;1.80;;
17157;SDS011;37344;51.948;7.622;2022-09-20T18:45:54;5.17;;;1.90;;
17157;SDS011;37344;51.948;7.622;2022-09-20T18:48:22;12.17;;;2.23;;
17157;SDS011;37344;51.948;7.622;2022-09-20T18:50:56;4.77;;;1.17;;
17157;SDS011;37344;51.948;7.622;2022-09-20T18:53:24;5.33;;;1.50;;
17157;SDS011;37344;51.948;7.622;2022-09-20T18:55:52;11.27;;;1.70;;
17157;SDS011;37344;51.948;7.622;2022-09-20T18:58:20;4.67;;;1.73;;
17157;SDS011;37344;51.948;7.622;2022-09-20T19:00:51;7.73;;;1.40;;
17157;SDS011;37344;51.948;7.622;2022-09-20T19:03:22;8.13;;;1.60;;
17157;SDS011;37344;51.948;7.622;2022-09-20T19:05:53;5.67;;;1.50;;
17157;SDS011;37344;51.948;7.622;2022-09-20T19:08:22;5.33;;;1.70;;
17157;SDS011;37344;51.948;7.622;2022-09-20T19:10:55;6.70;;;1.90;;
17157;SDS011;37344;51.948;7.622;2022-09-20T19:13:26;7.23;;;1.70;;
17157;SDS011;37344;51.948;7.622;2022-09-20T19:16:04;5.33;;;1.70;;
17157;SDS011;37344;51.948;7.622;2022-09-20T19:18:43;5.37;;;1.53;;
17157;SDS011;37344;51.948;7.622;2022-09-20T19:21:16;6.13;;;1.70;;
17157;SDS011;37344;51.948;7.622;2022-09-20T19:23:48;4.23;;;1.50;;
17157;SDS011;37344;51.948;7.622;2022-09-20T19:26:18;4.10;;;1.60;;
17157;SDS011;37344;51.948;7.622;2022-09-20T19:28:47;6.47;;;1.50;;
17157;SDS011;37344;51.948;7.622;2022-09-20T19:31:20;5.20;;;1.70;;
17157;SDS011;37344;51.948;7.622;2022-09-20T19:33:47;5.50;;;2.43;;
17157;SDS011;37344;51.948;7.622;2022-09-20T19:36:15;6.07;;;1.63;;
17157;SDS011;37344;51.948;7.622;2022-09-20T19:38:44;5.33;;;1.70;;
17157;SDS011;37344;51.948;7.622;2022-09-20T19:41:18;9.43;;;1.77;;
17157;SDS011;37344;51.948;7.622;2022-09-20T19:43:55;8.50;;;1.60;;
17157;SDS011;37344;51.948;7.622;2022-09-20T19:46:39;9.63;;;1.60;;
17157;SDS011;37344;51.948;7.622;2022-09-20T19:49:10;9.10;;;1.40;;
17157;SDS011;37344;51.948;7.622;2022-09-20T19:51:39;9.63;;;1.83;;
17157;SDS011;37344;51.948;7.622;2022-09-20T19:54:08;6.23;;;1.90;;
17157;SDS011;37344;51.948;7.622;2022-09-20T19:56:42;6.23;;;1.50;;
17157;SDS011;37344;51.948;7.622;2022-09-20T19:59:10;6.40;;;1.70;;
17157;SDS011;37344;51.948;7.622;2022-09-20T20:01:40;7.03;;;1.40;;
17157;SDS011;37344;51.948;7.622;2022-09-20T20:04:07;5.93;;;1.60;;
17157;SDS011;37344;51.948;7.622;2022-09-20T20:06:35;4.00;;;1.50;;
17157;SDS011;37344;51.948;7.622;2022-09-20T20:09:07;5.07;;;1.93;;
17157;SDS011;37344;51.948;7.622;2022-09-20T20:11:39;11.13;;;1.83;;
17157;SDS011;37344;51.948;7.622;2022-09-20T20:14:11;9.03;;;1.83;;
17157;SDS011;37344;51.948;7.622;2022-09-20T20:16:45;6.67;;;1.63;;
17157;SDS011;37344;51.948;7.622;2022-09-20T20:19:25;4.90;;;1.80;;
17157;SDS011;37344;51.948;7.622;2022-09-20T20:21:57;9.20;;;1.83;;
17157;SDS011;37344;51.948;7.622;2022-09-20T20:24:25;5.83;;;1.93;;
17157;SDS011;37344;51.948;7.622;2022-09-20T20:26:56;5.33;;;1.50;;
17157;SDS011;37344;51.948;7.622;2022-09-20T20:29:24;4.70;;;1.80;;
17157;SDS011;37344;51.948;7.622;2022-09-20T20:31:52;5.57;;;1.50;;
17157;SDS011;37344;51.948;7.622;2022-09-20T20:34:20;5.20;;;1.63;;
17157;SDS011;37344;51.948;7.622;2022-09-20T20:36:48;9.60;;;1.87;;
17157;SDS011;37344;51.948;7.622;2022-09-20T20:39:16;4.10;;;1.60;;
17157;SDS011;37344;51.948;7.622;2022-09-20T20:41:44;5.00;;;1.70;;
17157;SDS011;37344;51.948;7.622;2022-09-20T20:44:16;5.23;;;1.87;;
17157;SDS011;37344;51.948;7.622;2022-09-20T20:46:45;3.30;;;1.43;;
17157;SDS011;37344;51.948;7.622;2022-09-20T20:49:14;4.63;;;1.67;;
17157;SDS011;37344;51.948;7.622;2022-09-20T20:51:41;4.53;;;1.80;;
17157;SDS011;37344;51.948;7.622;2022-09-20T20:54:09;5.70;;;2.20;;
17157;SDS011;37344;51.948;7.622;2022-09-20T20:56:36;5.13;;;1.90;;
17157;SDS011;37344;51.948;7.622;2022-09-20T20:59:03;5.27;;;2.07;;
17157;SDS011;37344;51.948;7.622;2022-09-20T21:01:31;2.73;;;1.70;;
17157;SDS011;37344;51.948;7.622;2022-09-20T21:03:59;3.83;;;2.20;;
17157;SDS011;37344;51.948;7.622;2022-09-20T21:06:28;2.87;;;1.70;;
17157;SDS011;37344;51.948;7.622;2022-09-20T21:08:56;4.03;;;1.70;;
17157;SDS011;37344;51.948;7.622;2022-09-20T21:11:25;4.10;;;1.87;;
17157;SDS011;37344;51.948;7.622;2022-09-20T21:13:52;6.93;;;1.83;;
17157;SDS011;37344;51.948;7.622;2022-09-20T21:16:21;9.33;;;2.27;;
17157;SDS011;37344;51.948;7.622;2022-09-20T21:18:49;3.37;;;1.70;;
17157;SDS011;37344;51.948;7.622;2022-09-20T21:21:17;3.83;;;1.70;;
17157;SDS011;37344;51.948;7.622;2022-09-20T21:23:47;4.23;;;1.73;;
17157;SDS011;37344;51.948;7.622;2022-09-20T21:26:15;4.83;;;1.87;;
17157;SDS011;37344;51.948;7.622;2022-09-20T21:28:43;6.13;;;1.80;;
17157;SDS011;37344;51.948;7.622;2022-09-20T21:31:12;4.10;;;1.57;;
17157;SDS011;37344;51.948;7.622;2022-09-20T21:33:40;4.57;;;2.00;;
17157;SDS011;37344;51.948;7.622;2022-09-20T21:36:09;2.83;;;1.43;;
17157;SDS011;37344;51.948;7.622;2022-09-20T21:38:37;3.53;;;1.70;;
17157;SDS011;37344;51.948;7.622;2022-09-20T21:41:07;4.53;;;2.20;;
17157;SDS011;37344;51.948;7.622;2022-09-20T21:43:35;3.97;;;1.40;;
17157;SDS011;37344;51.948;7.622;2022-09-20T21:46:07;4.43;;;1.63;;
17157;SDS011;37344;51.948;7.622;2022-09-20T21:48:35;3.10;;;1.73;;